Time;durP1;ratioP1;P1;durP2;ratioP2;P2;SDS_P1;SDS_P2;PMS_P1;PMS_P2;Temp;Humidity;BMP_temperature;BMP_pressure;BME280_temperature;BME280_humidity;BME280_pressure;Samples;Min_cycle;Max_cycle;Signal;HPM_P1;HPM_P2
2022/12/08 00:00:22;;;;;;;6.67;6.47;;;2.70;99.90;;;;;;6304915;22;20522;-82
2022/12/08 00:03:01;;;;;;;7.20;7.00;;;2.70;99.90;;;;;;6293647;22;20249;-82
2022/12/08 00:14:49;;;;;;;;;;;;;;;;;;;;;
2022/12/08 01:00:35;;;;;;;7.60;7.40;;;2.10;99.90;;;;;;6147123;23;20203;-85
2022/12/08 01:17:36;;;;;;;7.40;7.20;;;2.20;99.90;;;;;;6316496;22;20348;-85
2022/12/08 01:24:14;;;;;;;7.23;7.03;;;2.00;99.90;;;;;;6170801;23;20230;-85
2022/12/08 01:44:58;;;;;;;7.03;6.83;;;1.90;99.90;;;;;;6168951;23;20200;-84
2022/12/08 01:48:14;;;;;;;7.30;7.10;;;1.80;99.90;;;;;;6080248;23;20198;-85
2022/12/08 02:08:11;;;;;;;;;;;;;;;;;;;;;
2022/12/08 02:28:43;;;;;;;7.27;7.07;;;1.50;99.90;;;;;;6104365;23;20242;-85
2022/12/08 02:35:17;;;;;;;7.23;7.03;;;1.40;99.90;;;;;;6165214;23;20255;-85
2022/12/08 02:38:19;;;;;;;7.20;7.00;;;1.40;99.90;;;;;;6166010;23;20265;-85
2022/12/08 02:41:59;;;;;;;7.00;6.80;;;1.30;99.90;;;;;;6165114;23;20201;-85
2022/12/08 02:59:45;;;;;;;6.90;6.70;;;1.40;99.90;;;;;;6102271;23;20360;-85
2022/12/08 03:17:25;;;;;;;7.20;7.00;;;1.20;99.90;;;;;;6103625;23;20258;-85
2022/12/08 03:24:04;;;;;;;6.83;6.63;;;1.10;99.90;;;;;;6250030;22;20198;-85
2022/12/08 03:27:19;;;;;;;7.10;6.90;;;1.10;99.90;;;;;;6244721;22;20256;-84
2022/12/08 03:37:17;;;;;;;7.10;6.90;;;1.20;99.90;;;;;;6223290;23;20209;-85
2022/12/08 03:56:27;;;;;;;6.60;6.40;;;1.20;99.90;;;;;;6162341;23;20191;-85
2022/12/08 04:12:57;;;;;;;7.20;7.00;;;1.20;99.90;;;;;;6196607;23;20196;-85
2022/12/08 04:19:40;;;;;;;6.90;6.70;;;1.20;99.90;;;;;;6238081;23;20266;-85
2022/12/08 05:05:43;;;;;;;6.63;6.43;;;1.40;99.90;;;;;;6227408;23;20210;-87
2022/12/08 05:54:13;;;;;;;6.60;6.40;;;1.30;99.90;;;;;;6174865;23;20279;-86
2022/12/08 06:00:39;;;;;;;;;;;;;;;;;;;;;
2022/12/08 06:13:09;;;;;;;6.93;6.73;;;1.30;99.90;;;;;;6209006;23;20210;-83
2022/12/08 06:15:37;;;;;;;6.80;6.60;;;1.30;99.90;;;;;;6217850;23;20210;-84
2022/12/08 06:18:05;;;;;;;7.00;6.80;;;1.30;99.90;;;;;;6216304;23;20235;-82
2022/12/08 06:20:32;;;;;;;7.10;6.90;;;1.30;99.90;;;;;;6211770;23;20235;-83
2022/12/08 06:23:00;;;;;;;6.80;6.60;;;1.30;99.90;;;;;;6212602;23;20219;-83
2022/12/08 06:25:30;;;;;;;6.63;6.43;;;1.30;99.90;;;;;;6216659;23;20199;-83
2022/12/08 06:27:58;;;;;;;6.50;6.30;;;1.30;99.90;;;;;;6215079;23;20244;-84
2022/12/08 06:30:37;;;;;;;6.70;6.50;;;1.40;99.90;;;;;;6214025;23;20195;-83
2022/12/08 06:33:09;;;;;;;6.60;6.40;;;1.40;99.90;;;;;;6218013;23;20226;-83
2022/12/08 06:35:37;;;;;;;6.53;6.33;;;1.40;99.90;;;;;;6214685;23;20208;-83
2022/12/08 06:38:05;;;;;;;6.80;6.60;;;1.40;99.90;;;;;;6211779;23;20251;-83
2022/12/08 06:40:32;;;;;;;6.67;6.47;;;1.40;99.90;;;;;;6213966;23;20215;-84
2022/12/08 06:43:00;;;;;;;6.90;6.70;;;1.40;99.90;;;;;;6216436;23;20292;-83
2022/12/08 06:45:34;;;;;;;7.17;6.97;;;1.50;99.90;;;;;;6216708;23;20211;-83
2022/12/08 06:48:03;;;;;;;7.20;7.00;;;1.50;99.90;;;;;;6211616;23;20401;-87
2022/12/08 06:50:35;;;;;;;7.20;7.00;;;1.50;99.90;;;;;;6209183;23;20211;-86
2022/12/08 06:53:03;;;;;;;7.20;7.00;;;1.50;99.90;;;;;;6210612;23;20263;-86
2022/12/08 06:55:32;;;;;;;7.20;7.00;;;1.50;99.90;;;;;;6204754;23;20232;-86
2022/12/08 06:58:02;;;;;;;7.10;6.90;;;1.50;99.90;;;;;;6201977;23;20196;-90
2022/12/08 07:00:32;;;;;;;7.20;7.00;;;1.50;99.90;;;;;;6208773;23;20187;-85
2022/12/08 07:03:00;;;;;;;7.20;7.00;;;1.50;99.90;;;;;;6205639;23;20200;-85
2022/12/08 07:05:29;;;;;;;7.10;6.90;;;1.50;99.90;;;;;;6204345;23;20286;-85
2022/12/08 07:07:59;;;;;;;7.00;6.80;;;1.50;99.90;;;;;;6203206;23;20231;-85
2022/12/08 07:10:28;;;;;;;7.10;6.90;;;1.60;99.90;;;;;;6203257;23;20989;-85
2022/12/08 07:13:06;;;;;;;7.20;7.00;;;1.60;99.90;;;;;;6202526;23;20227;-85
2022/12/08 07:15:44;;;;;;;7.60;7.40;;;1.50;99.90;;;;;;6202866;23;20199;-85
2022/12/08 07:18:16;;;;;;;7.27;7.07;;;1.50;99.90;;;;;;6203233;23;20283;-86
2022/12/08 07:20:44;;;;;;;7.40;7.20;;;1.50;99.90;;;;;;6203591;23;20196;-86
2022/12/08 07:23:13;;;;;;;7.43;7.23;;;1.50;99.90;;;;;;6207199;23;20200;-86
2022/12/08 07:25:51;;;;;;;7.40;7.20;;;1.50;99.90;;;;;;6208566;23;20211;-82
2022/12/08 07:28:21;;;;;;;7.80;7.60;;;1.60;99.90;;;;;;6211847;23;20187;-80
2022/12/08 07:30:53;;;;;;;7.77;7.57;;;1.60;99.90;;;;;;6205123;23;20231;-86
2022/12/08 07:33:20;;;;;;;7.90;7.70;;;1.60;99.90;;;;;;6204642;23;20204;-84
2022/12/08 07:35:57;;;;;;;7.50;7.30;;;1.60;99.90;;;;;;6202786;23;20246;-84
2022/12/08 07:38:27;;;;;;;7.70;7.50;;;1.50;99.90;;;;;;6203818;23;20198;-83
2022/12/08 07:40:56;;;;;;;7.70;7.50;;;1.50;99.90;;;;;;6201644;23;20188;-84
2022/12/08 07:43:28;;;;;;;7.43;7.23;;;1.50;99.90;;;;;;6201177;23;20311;-85
2022/12/08 07:45:58;;;;;;;7.50;7.30;;;1.50;99.90;;;;;;6204867;23;20227;-84
2022/12/08 07:48:26;;;;;;;7.33;7.13;;;1.40;99.90;;;;;;6209684;23;20243;-84
2022/12/08 07:51:06;;;;;;;7.70;7.50;;;1.50;99.90;;;;;;6209905;23;20255;-84
2022/12/08 07:53:33;;;;;;;7.80;7.60;;;1.50;99.90;;;;;;6209021;23;20226;-84
2022/12/08 07:56:03;;;;;;;7.60;7.40;;;1.50;99.90;;;;;;6205162;23;20192;-84
2022/12/08 07:58:33;;;;;;;7.50;7.30;;;1.50;99.90;;;;;;6202749;23;20278;-84
2022/12/08 08:01:13;;;;;;;7.33;7.13;;;1.50;99.90;;;;;;6200260;23;20203;-84
2022/12/08 08:03:40;;;;;;;7.50;7.30;;;1.50;99.90;;;;;;6201346;23;20206;-83
2022/12/08 08:06:10;;;;;;;7.60;7.40;;;1.60;99.90;;;;;;6203066;23;20206;-84
2022/12/08 08:08:39;;;;;;;7.80;7.60;;;1.60;99.90;;;;;;6200060;23;20243;-83
2022/12/08 08:11:09;;;;;;;7.57;7.37;;;1.60;99.90;;;;;;6199696;23;20282;-84
2022/12/08 08:13:38;;;;;;;7.70;7.50;;;1.60;99.90;;;;;;6199248;23;20219;-84
2022/12/08 08:16:18;;;;;;;7.80;7.60;;;1.60;99.90;;;;;;6199897;23;20200;-84
2022/12/08 08:18:47;;;;;;;7.43;7.23;;;1.60;99.90;;;;;;6199547;23;20199;-84
2022/12/08 08:21:15;;;;;;;7.60;7.40;;;1.60;99.90;;;;;;6199034;23;20211;-84
2022/12/08 08:23:46;;;;;;;7.60;7.40;;;1.60;99.90;;;;;;6199868;23;20223;-83
2022/12/08 08:26:14;;;;;;;7.60;7.40;;;1.50;99.90;;;;;;6200561;23;20200;-84
2022/12/08 08:28:44;;;;;;;7.90;7.70;;;1.50;99.90;;;;;;6200789;23;20250;-84
2022/12/08 08:31:22;;;;;;;7.50;7.30;;;1.50;99.90;;;;;;6200765;23;20199;-84
2022/12/08 08:33:54;;;;;;;7.60;7.40;;;1.50;99.90;;;;;;6201911;23;20210;-83
2022/12/08 08:36:22;;;;;;;7.87;7.67;;;1.50;99.90;;;;;;6201253;23;20195;-83
2022/12/08 08:38:51;;;;;;;7.50;7.30;;;1.60;99.90;;;;;;6201386;23;20202;-84
2022/12/08 08:41:20;;;;;;;7.70;7.50;;;1.50;99.90;;;;;;6206049;23;20200;-83
2022/12/08 08:43:49;;;;;;;7.70;7.50;;;1.50;99.90;;;;;;6214666;23;20211;-84
2022/12/08 08:46:28;;;;;;;8.10;7.90;;;1.50;99.90;;;;;;6208105;23;20200;-83
2022/12/08 08:48:58;;;;;;;8.20;8.00;;;1.50;99.90;;;;;;6210204;23;20218;-84
2022/12/08 08:51:27;;;;;;;8.10;7.90;;;1.50;99.90;;;;;;6206218;23;20203;-84
2022/12/08 08:53:57;;;;;;;8.20;8.00;;;1.60;99.90;;;;;;6204396;23;20247;-84
2022/12/08 08:56:26;;;;;;;8.00;7.80;;;1.60;99.90;;;;;;6202261;23;20199;-84
2022/12/08 08:58:55;;;;;;;7.90;7.70;;;1.60;99.90;;;;;;6202005;23;20203;-84
2022/12/08 09:01:34;;;;;;;7.77;7.57;;;1.60;99.90;;;;;;6201847;23;20214;-85
2022/12/08 09:04:03;;;;;;;7.70;7.50;;;1.60;99.90;;;;;;6198331;23;20230;-84
2022/12/08 09:06:30;;;;;;;7.90;7.70;;;1.70;99.90;;;;;;6200654;23;20637;-85
2022/12/08 09:09:03;;;;;;;7.83;7.63;;;1.70;99.90;;;;;;6199283;23;20238;-86
2022/12/08 09:11:32;;;;;;;7.83;7.63;;;1.70;99.90;;;;;;6198548;23;20259;-85
2022/12/08 09:14:01;;;;;;;7.90;7.70;;;1.70;99.90;;;;;;6198600;23;20218;-84
2022/12/08 09:16:32;;;;;;;8.03;7.83;;;1.70;99.90;;;;;;6201688;23;20266;-84
2022/12/08 09:19:01;;;;;;;7.80;7.60;;;1.70;99.90;;;;;;6201865;23;20207;-83
2022/12/08 09:21:28;;;;;;;7.77;7.57;;;1.70;99.90;;;;;;6200891;23;20187;-84
2022/12/08 09:23:59;;;;;;;8.00;7.80;;;1.70;99.90;;;;;;6205460;23;20203;-86
2022/12/08 09:26:28;;;;;;;8.00;7.80;;;1.70;99.90;;;;;;6202701;23;20237;-85
2022/12/08 09:28:57;;;;;;;7.97;7.77;;;1.70;99.90;;;;;;6202499;23;20202;-87
2022/12/08 09:31:29;;;;;;;7.70;7.50;;;1.70;99.90;;;;;;6202173;23;20210;-86
2022/12/08 09:33:58;;;;;;;7.80;7.60;;;1.70;99.90;;;;;;6201582;23;20239;-87
2022/12/08 09:36:26;;;;;;;7.93;7.73;;;1.70;99.90;;;;;;6201692;23;20196;-86
2022/12/08 09:38:54;;;;;;;7.90;7.70;;;1.80;99.90;;;;;;6200153;23;20278;-87
2022/12/08 09:41:33;;;;;;;7.80;7.60;;;1.80;99.90;;;;;;6200386;23;20290;-86
2022/12/08 09:44:32;;;;;;;8.00;7.80;;;1.80;99.90;;;;;;6199613;23;20250;-87
2022/12/08 09:47:08;;;;;;;8.13;7.93;;;1.90;99.90;;;;;;6183536;23;20208;-87
2022/12/08 09:49:45;;;;;;;8.20;8.00;;;2.00;99.90;;;;;;6198998;23;20274;-90
2022/12/08 09:52:24;;;;;;;8.10;7.90;;;2.00;99.90;;;;;;6199221;23;20237;-88
2022/12/08 09:55:12;;;;;;;8.07;7.87;;;2.10;99.90;;;;;;6199659;23;20250;-89
2022/12/08 09:57:41;;;;;;;8.40;8.20;;;2.10;99.90;;;;;;6201629;23;20225;-89
2022/12/08 10:00:17;;;;;;;8.60;8.40;;;2.10;99.90;;;;;;6199237;23;20199;-87
2022/12/08 10:02:50;;;;;;;8.50;8.30;;;2.10;99.90;;;;;;6201860;23;20214;-89
2022/12/08 10:08:23;;;;;;;8.60;8.40;;;2.20;99.90;;;;;;6202749;23;20203;-85
2022/12/08 10:11:03;;;;;;;8.60;8.40;;;2.20;99.90;;;;;;6201212;23;20665;-85
2022/12/08 10:16:28;;;;;;;8.57;8.37;;;2.30;99.90;;;;;;6202723;23;20207;-87
2022/12/08 10:19:15;;;;;;;8.40;8.20;;;2.30;99.90;;;;;;6201092;23;20199;-86
2022/12/08 10:21:46;;;;;;;8.50;8.30;;;2.30;99.90;;;;;;6201053;23;20198;-87
2022/12/08 10:24:23;;;;;;;8.50;8.30;;;2.40;99.90;;;;;;6201343;23;20210;-86
2022/12/08 10:26:51;;;;;;;8.40;8.20;;;2.40;99.90;;;;;;6202348;23;20195;-88
2022/12/08 10:29:21;;;;;;;8.37;8.17;;;2.30;99.90;;;;;;6201675;23;20227;-88
2022/12/08 10:31:50;;;;;;;8.37;8.17;;;2.30;99.90;;;;;;6201088;23;20234;-87
2022/12/08 10:34:28;;;;;;;8.43;8.23;;;2.40;99.90;;;;;;6199590;23;20203;-87
2022/12/08 10:36:59;;;;;;;8.40;8.20;;;2.40;99.90;;;;;;6204147;23;20199;-87
2022/12/08 10:39:45;;;;;;;8.60;8.40;;;2.40;99.90;;;;;;6201617;23;20227;-88
2022/12/08 10:42:24;;;;;;;8.60;8.40;;;2.50;99.90;;;;;;6202051;23;20199;-86
2022/12/08 10:45:03;;;;;;;8.60;8.40;;;2.50;99.90;;;;;;6204135;23;20188;-87
2022/12/08 10:47:42;;;;;;;8.47;8.27;;;2.50;99.90;;;;;;6202892;23;20231;-86
2022/12/08 10:50:20;;;;;;;8.73;8.53;;;2.70;99.90;;;;;;6206846;23;20263;-86
2022/12/08 10:52:58;;;;;;;8.77;8.57;;;2.70;99.90;;;;;;6204272;23;20205;-86
2022/12/08 10:55:26;;;;;;;8.83;8.63;;;2.80;99.90;;;;;;6206134;23;20665;-86
2022/12/08 10:57:55;;;;;;;8.90;8.70;;;2.80;99.90;;;;;;6215769;22;20262;-87
2022/12/08 11:00:27;;;;;;;8.70;8.50;;;2.90;99.90;;;;;;6218572;22;20180;-87
2022/12/08 11:03:02;;;;;;;9.10;8.80;;;2.90;99.90;;;;;;6212002;23;20204;-86
2022/12/08 11:05:41;;;;;;;8.80;8.60;;;3.00;99.90;;;;;;6205969;23;20195;-87
2022/12/08 11:08:10;;;;;;;8.90;8.70;;;3.10;99.90;;;;;;6205274;23;20238;-87
2022/12/08 11:10:49;;;;;;;8.90;8.70;;;3.20;99.90;;;;;;6206199;23;20278;-85
2022/12/08 11:13:28;;;;;;;8.70;8.50;;;3.30;99.90;;;;;;6207204;23;20203;-86
2022/12/08 11:15:57;;;;;;;8.97;8.77;;;3.40;99.90;;;;;;6208165;23;20203;-86
2022/12/08 11:18:34;;;;;;;8.60;8.40;;;3.50;99.90;;;;;;6209831;23;20293;-86
2022/12/08 11:21:12;;;;;;;8.40;8.20;;;3.60;99.90;;;;;;6205246;23;20191;-86
2022/12/08 11:23:51;;;;;;;8.70;8.50;;;3.70;99.90;;;;;;6205302;23;20200;-86
2022/12/08 11:26:30;;;;;;;8.70;8.50;;;3.60;99.90;;;;;;6204123;23;20191;-86
2022/12/08 11:28:58;;;;;;;8.63;8.43;;;3.70;99.90;;;;;;6204314;23;20196;-86
2022/12/08 11:31:37;;;;;;;9.37;9.07;;;3.80;99.90;;;;;;6203286;23;20245;-86
2022/12/08 11:34:06;;;;;;;9.03;8.77;;;4.00;99.90;;;;;;6203005;23;20262;-86
2022/12/08 11:36:45;;;;;;;8.90;8.70;;;4.00;99.90;;;;;;6203801;23;20195;-86
2022/12/08 11:39:14;;;;;;;9.10;8.80;;;4.00;99.90;;;;;;6206196;23;20196;-86
2022/12/08 11:41:44;;;;;;;9.07;8.80;;;3.90;99.90;;;;;;6203881;23;20254;-86
2022/12/08 11:44:31;;;;;;;8.87;8.67;;;3.70;99.90;;;;;;6202568;23;20227;-86
2022/12/08 11:47:02;;;;;;;8.80;8.60;;;3.70;99.90;;;;;;6201939;23;20654;-86
2022/12/08 11:49:38;;;;;;;9.10;8.80;;;3.70;99.90;;;;;;6200149;23;20203;-86
2022/12/08 11:52:25;;;;;;;8.70;8.50;;;3.80;99.90;;;;;;6200871;23;20192;-85
2022/12/08 11:55:05;;;;;;;9.10;8.80;;;3.70;99.90;;;;;;6201533;23;20187;-85
2022/12/08 11:57:34;;;;;;;9.13;8.83;;;3.60;99.90;;;;;;6201658;23;20191;-87
2022/12/08 12:00:03;;;;;;;9.27;8.97;;;3.60;99.90;;;;;;6200839;23;20205;-86
2022/12/08 12:02:41;;;;;;;9.00;8.73;;;3.60;99.90;;;;;;6200561;23;20207;-86
2022/12/08 12:05:30;;;;;;;8.80;8.60;;;3.60;99.90;;;;;;6200755;23;20230;-86
2022/12/08 12:08:16;;;;;;;9.10;8.80;;;3.50;99.90;;;;;;6199846;23;20200;-86
2022/12/08 12:10:57;;;;;;;8.80;8.60;;;3.60;99.90;;;;;;6200209;23;20227;-86
2022/12/08 12:33:40;;;;;;;9.33;9.03;;;3.50;99.90;;;;;;6086746;23;20201;-85
2022/12/08 12:36:41;;;;;;;9.30;9.00;;;3.50;99.90;;;;;;6131688;23;20200;-85
2022/12/08 13:33:51;;;;;;;9.13;8.83;;;3.40;99.90;;;;;;5864487;23;20259;-86
2022/12/08 15:38:41;;;;;;;8.43;8.23;;;3.40;99.90;;;;;;6214103;23;20201;-83
2022/12/08 15:44:06;;;;;;;8.60;8.40;;;3.50;99.90;;;;;;6222516;23;20234;-88
2022/12/08 15:46:48;;;;;;;8.50;8.30;;;3.60;99.90;;;;;;6228034;23;20194;-86
2022/12/08 15:52:21;;;;;;;8.63;8.43;;;3.60;99.90;;;;;;6227151;23;20197;-85
2022/12/08 15:55:11;;;;;;;8.63;8.43;;;3.60;99.90;;;;;;6226504;23;20290;-86
2022/12/08 15:58:09;;;;;;;8.80;8.60;;;3.50;99.90;;;;;;6226797;23;20195;-86
2022/12/08 16:00:42;;;;;;;8.57;8.37;;;3.50;99.90;;;;;;6235388;22;20179;-84
2022/12/08 16:03:31;;;;;;;8.70;8.50;;;3.50;99.90;;;;;;6235726;23;20195;-86
2022/12/08 16:15:57;;;;;;;8.80;8.60;;;3.50;99.90;;;;;;6252429;22;20223;-85
2022/12/08 16:34:07;;;;;;;8.90;8.70;;;3.40;99.90;;;;;;6227537;23;20249;-86
2022/12/08 16:37:16;;;;;;;8.70;8.50;;;3.50;99.90;;;;;;6227865;23;20553;-86
2022/12/08 16:53:03;;;;;;;8.90;8.70;;;3.50;99.90;;;;;;6222671;23;20205;-86
2022/12/08 17:31:23;;;;;;;8.90;8.70;;;3.70;99.90;;;;;;6163519;23;20200;-85
2022/12/08 17:37:05;;;;;;;8.47;8.27;;;3.70;99.90;;;;;;6219544;23;20203;-87
2022/12/08 17:39:46;;;;;;;8.50;8.30;;;3.70;99.90;;;;;;6189119;23;20270;-87
2022/12/08 17:45:43;;;;;;;8.30;8.10;;;3.80;99.90;;;;;;6205301;23;20191;-86
2022/12/08 17:48:15;;;;;;;8.50;8.30;;;3.80;99.90;;;;;;6226728;23;20290;-86
2022/12/08 17:50:45;;;;;;;8.57;8.37;;;3.80;99.90;;;;;;6230282;23;20199;-85
2022/12/08 17:53:46;;;;;;;8.30;8.10;;;3.80;99.90;;;;;;6227334;23;20203;-85
2022/12/08 18:24:47;;;;;;;8.77;8.57;;;3.70;99.90;;;;;;6241164;23;20218;-82
2022/12/08 18:27:57;;;;;;;8.60;8.40;;;3.70;99.90;;;;;;6230948;23;20198;-83
2022/12/08 18:30:33;;;;;;;8.60;8.40;;;3.70;99.90;;;;;;6228703;23;20195;-85
2022/12/08 18:33:23;;;;;;;8.67;8.47;;;3.70;99.90;;;;;;6227180;23;20191;-83
2022/12/08 18:36:12;;;;;;;8.70;8.50;;;3.70;99.90;;;;;;6226891;23;20191;-82
2022/12/08 18:38:44;;;;;;;9.00;8.80;;;3.70;99.90;;;;;;6274132;22;20233;-87
2022/12/08 18:41:19;;;;;;;8.90;8.70;;;3.70;99.90;;;;;;6293142;22;20200;-84
2022/12/08 18:43:47;;;;;;;8.60;8.40;;;3.80;99.90;;;;;;6294371;22;20185;-85
2022/12/08 18:46:17;;;;;;;8.20;8.00;;;3.70;99.90;;;;;;6293427;22;20217;-85
2022/12/08 18:55:49;;;;;;;8.20;8.00;;;3.70;99.90;;;;;;6248029;22;20191;-84
2022/12/08 18:58:29;;;;;;;8.40;8.20;;;3.60;99.90;;;;;;6292516;22;20198;-86
2022/12/08 19:00:57;;;;;;;8.23;8.03;;;3.60;99.90;;;;;;6293571;22;20189;-85
2022/12/08 19:03:25;;;;;;;7.97;7.77;;;3.60;99.90;;;;;;6293325;22;20193;-84
2022/12/08 19:06:13;;;;;;;8.00;7.80;;;3.60;99.90;;;;;;6291974;22;20201;-86
2022/12/08 19:08:44;;;;;;;8.30;8.10;;;3.60;99.90;;;;;;6292236;22;20337;-84
2022/12/08 19:11:20;;;;;;;8.80;8.60;;;3.50;99.90;;;;;;6292755;22;20186;-84
2022/12/08 19:14:00;;;;;;;8.80;8.60;;;3.50;99.90;;;;;;6294141;22;20248;-84
2022/12/08 19:16:28;;;;;;;8.57;8.37;;;3.50;99.90;;;;;;6294903;22;20674;-85
2022/12/08 19:18:57;;;;;;;8.40;8.20;;;3.50;99.90;;;;;;6291915;22;20205;-85
2022/12/08 19:21:26;;;;;;;8.67;8.47;;;3.50;99.90;;;;;;6293510;22;20220;-84
2022/12/08 19:24:05;;;;;;;8.60;8.40;;;3.50;99.90;;;;;;6294311;22;20194;-85
2022/12/08 19:26:40;;;;;;;8.77;8.57;;;3.40;99.90;;;;;;6292402;22;20200;-87
2022/12/08 19:29:13;;;;;;;8.67;8.47;;;3.30;99.90;;;;;;6292471;22;20208;-85
2022/12/08 19:31:41;;;;;;;9.20;8.90;;;3.20;99.90;;;;;;6293352;22;20232;-86
2022/12/08 19:34:12;;;;;;;9.40;9.10;;;3.20;99.90;;;;;;6292977;22;20208;-84
2022/12/08 19:36:42;;;;;;;9.13;8.83;;;3.10;99.90;;;;;;6293600;22;20206;-86
2022/12/08 19:45:11;;;;;;;9.20;8.90;;;3.00;99.90;;;;;;6294548;22;20181;-85
2022/12/08 19:47:39;;;;;;;9.30;9.00;;;2.90;99.90;;;;;;6293398;22;20193;-85
2022/12/08 19:52:56;;;;;;;9.13;8.83;;;2.60;99.90;;;;;;6294399;22;20256;-85
2022/12/08 19:55:38;;;;;;;9.40;9.10;;;2.50;99.90;;;;;;6293639;22;20193;-85
2022/12/08 20:01:03;;;;;;;9.03;8.77;;;2.30;99.90;;;;;;6290637;22;20228;-86
2022/12/08 20:03:31;;;;;;;8.90;8.70;;;2.30;99.90;;;;;;6292489;22;20208;-86
2022/12/08 20:06:10;;;;;;;9.10;8.80;;;2.30;99.90;;;;;;6292474;22;20202;-86
2022/12/08 20:08:41;;;;;;;8.70;8.50;;;2.20;99.90;;;;;;6291071;22;20200;-86
2022/12/08 20:11:11;;;;;;;8.60;8.40;;;2.20;99.90;;;;;;6298213;22;20189;-86
2022/12/08 20:13:46;;;;;;;8.50;8.30;;;2.20;99.90;;;;;;6301095;22;20189;-88
2022/12/08 20:16:15;;;;;;;8.70;8.50;;;2.20;99.90;;;;;;6300054;22;20195;-86
2022/12/08 20:18:47;;;;;;;9.07;8.80;;;2.10;99.90;;;;;;6299872;22;20209;-87
2022/12/08 20:21:18;;;;;;;8.60;8.40;;;2.00;99.90;;;;;;6300133;22;20192;-87
2022/12/08 20:27:12;;;;;;;8.50;8.30;;;2.00;99.90;;;;;;6299063;22;20229;-87
2022/12/08 20:29:45;;;;;;;8.60;8.40;;;2.00;99.90;;;;;;6297418;22;20205;-86
2022/12/08 20:32:17;;;;;;;8.47;8.27;;;1.90;99.90;;;;;;6294910;22;20232;-87
2022/12/08 20:34:44;;;;;;;8.60;8.40;;;1.90;99.90;;;;;;6293087;22;20198;-87
2022/12/08 20:37:17;;;;;;;8.53;8.33;;;1.90;99.90;;;;;;6292044;22;20205;-87
2022/12/08 20:39:52;;;;;;;8.70;8.50;;;1.90;99.90;;;;;;6293435;22;20228;-85
2022/12/08 20:42:23;;;;;;;8.83;8.63;;;1.90;99.90;;;;;;6299081;22;20197;-85
2022/12/08 20:44:50;;;;;;;8.80;8.60;;;1.90;99.90;;;;;;6301879;22;20197;-87
2022/12/08 20:47:21;;;;;;;8.77;8.57;;;1.90;99.90;;;;;;6296352;22;20207;-86
2022/12/08 20:49:49;;;;;;;8.80;8.60;;;1.90;99.90;;;;;;6292098;22;20748;-85
2022/12/08 20:52:18;;;;;;;8.40;8.20;;;1.90;99.90;;;;;;6291771;22;20264;-86
2022/12/08 21:04:47;;;;;;;8.40;8.20;;;1.80;99.90;;;;;;6291139;22;20193;-87
2022/12/08 21:07:26;;;;;;;8.50;8.30;;;1.80;99.90;;;;;;6303834;22;20200;-87
2022/12/08 21:10:25;;;;;;;8.60;8.40;;;1.70;99.90;;;;;;6299657;22;20201;-87
2022/12/08 21:13:08;;;;;;;8.50;8.30;;;1.70;99.90;;;;;;6280230;22;20200;-88
2022/12/08 21:15:36;;;;;;;8.60;8.40;;;1.80;99.90;;;;;;6293697;22;20201;-87
2022/12/08 21:21:16;;;;;;;8.30;8.10;;;1.80;99.90;;;;;;6288282;22;20194;-86
2022/12/08 21:23:49;;;;;;;8.50;8.30;;;1.80;99.90;;;;;;6294379;22;20216;-86
2022/12/08 21:26:39;;;;;;;8.30;8.10;;;1.80;99.90;;;;;;6295105;22;20194;-87
2022/12/08 21:29:23;;;;;;;8.47;8.27;;;1.80;99.90;;;;;;6297917;22;20247;-85
2022/12/08 21:32:04;;;;;;;8.30;8.10;;;1.80;99.90;;;;;;6297256;22;20193;-85
2022/12/08 21:34:42;;;;;;;8.23;8.03;;;1.80;99.90;;;;;;6298954;22;20204;-85
2022/12/08 21:37:28;;;;;;;8.00;7.80;;;1.80;99.90;;;;;;6297688;22;20586;-86
2022/12/08 21:39:56;;;;;;;8.10;7.90;;;1.80;99.90;;;;;;6296567;22;20228;-85
2022/12/08 21:42:53;;;;;;;7.97;7.77;;;1.80;99.90;;;;;;6298117;22;20193;-87
2022/12/08 21:45:22;;;;;;;8.00;7.80;;;1.80;99.90;;;;;;6298001;22;20197;-85
2022/12/08 21:48:13;;;;;;;7.77;7.57;;;1.80;99.90;;;;;;6297761;22;20198;-85
2022/12/08 21:50:59;;;;;;;7.90;7.70;;;1.70;99.90;;;;;;6296344;22;20248;-86
2022/12/08 21:54:11;;;;;;;8.10;7.90;;;1.70;99.90;;;;;;6293209;22;20219;-86
2022/12/08 22:00:01;;;;;;;7.80;7.60;;;1.50;99.90;;;;;;6140065;23;20201;-86
2022/12/08 22:02:32;;;;;;;7.80;7.60;;;1.40;99.90;;;;;;6296244;22;20190;-84
2022/12/08 22:05:00;;;;;;;7.83;7.63;;;1.40;99.90;;;;;;6295253;22;20221;-83
2022/12/08 22:07:39;;;;;;;8.00;7.80;;;1.40;99.90;;;;;;6291333;22;20198;-85
2022/12/08 22:10:19;;;;;;;8.00;7.80;;;1.40;99.90;;;;;;6293665;22;20197;-84
2022/12/08 22:13:01;;;;;;;8.00;7.80;;;1.40;99.90;;;;;;6292090;22;20272;-85
2022/12/08 22:15:48;;;;;;;7.60;7.40;;;1.40;99.90;;;;;;6293477;22;20190;-85
2022/12/08 22:18:20;;;;;;;7.43;7.23;;;1.30;99.90;;;;;;6293515;22;20207;-84
2022/12/08 22:23:56;;;;;;;7.60;7.40;;;1.30;99.90;;;;;;6277243;22;20201;-85
2022/12/08 22:26:44;;;;;;;7.67;7.47;;;1.20;99.90;;;;;;6293166;22;20200;-85
2022/12/08 22:29:11;;;;;;;7.50;7.30;;;1.20;99.90;;;;;;6293623;22;20240;-85
2022/12/08 22:31:42;;;;;;;7.70;7.50;;;1.20;99.90;;;;;;6296709;22;20193;-85
2022/12/08 22:37:41;;;;;;;7.87;7.67;;;1.10;99.90;;;;;;6229547;22;20214;-85
2022/12/08 22:53:05;;;;;;;7.60;7.40;;;1.00;99.90;;;;;;6294181;22;20205;-84
2022/12/08 22:56:17;;;;;;;7.57;7.37;;;1.10;99.90;;;;;;6292489;22;20257;-84
2022/12/08 22:59:00;;;;;;;7.40;7.20;;;1.10;99.90;;;;;;6297523;22;20217;-84
2022/12/08 23:02:26;;;;;;;7.60;7.40;;;1.10;99.90;;;;;;6296968;22;20265;-86
2022/12/08 23:09:22;;;;;;;7.50;7.30;;;1.20;99.90;;;;;;6257110;22;21154;-85
2022/12/08 23:11:57;;;;;;;8.10;7.90;;;1.30;99.90;;;;;;6261233;22;20375;-87
2022/12/08 23:21:31;;;;;;;7.70;7.50;;;1.60;99.90;;;;;;6262685;22;20204;-88
2022/12/08 23:24:12;;;;;;;7.80;7.60;;;1.70;99.90;;;;;;6262482;22;20201;-85
2022/12/08 23:26:46;;;;;;;8.00;7.80;;;1.70;99.90;;;;;;6264541;22;20250;-84
2022/12/08 23:34:05;;;;;;;7.90;7.70;;;1.60;99.90;;;;;;6227746;22;20241;-86
2022/12/08 23:39:49;;;;;;;8.03;7.83;;;1.50;99.90;;;;;;6261261;22;20205;-86
2022/12/08 23:42:17;;;;;;;8.10;7.90;;;1.40;99.90;;;;;;6264545;22;20202;-85
2022/12/08 23:47:55;;;;;;;7.80;7.60;;;1.30;99.90;;;;;;6269278;22;20257;-85
2022/12/08 23:50:23;;;;;;;7.53;7.33;;;1.30;99.90;;;;;;6266596;22;20272;-84
2022/12/08 23:55:38;;;;;;;7.53;7.33;;;1.30;99.90;;;;;;6264916;22;20241;-85
2022/12/08 23:58:08;;;;;;;7.60;7.40;;;1.20;99.90;;;;;;6264783;22;20205;-84
